Time;durP1;ratioP1;P1;durP2;ratioP2;P2;SDS_P1;SDS_P2;PMS_P1;PMS_P2;Temp;Humidity;BMP_temperature;BMP_pressure;BME280_temperature;BME280_humidity;BME280_pressure;Samples;Min_cycle;Max_cycle;Signal;HPM_P1;HPM_P2
2022/10/04 00:01:06;;;;;;;5.17;3.93;;;7.70;99.90;;;;;;5007382;28;20707;-77
2022/10/04 00:03:38;;;;;;;4.67;4.20;;;7.80;99.90;;;;;;5015225;28;20633;-77
2022/10/04 00:06:12;;;;;;;5.60;4.07;;;7.90;99.90;;;;;;5025755;28;20634;-77
2022/10/04 00:08:45;;;;;;;5.87;4.67;;;7.90;99.90;;;;;;5025430;28;20634;-77
2022/10/04 00:11:18;;;;;;;5.40;3.27;;;7.90;99.90;;;;;;5026352;28;20624;-76
2022/10/04 00:13:52;;;;;;;5.20;3.83;;;8.00;99.90;;;;;;5026182;28;20627;-77
2022/10/04 00:16:23;;;;;;;2.87;2.63;;;8.00;99.90;;;;;;5026327;28;20674;-77
2022/10/04 00:19:01;;;;;;;4.67;4.00;;;8.10;99.90;;;;;;5026459;28;20622;-77
2022/10/04 00:22:07;;;;;;;5.30;3.10;;;8.00;99.90;;;;;;5026493;28;20638;-76
2022/10/04 00:24:36;;;;;;;4.07;3.53;;;8.00;99.90;;;;;;5005766;28;20675;-77
2022/10/04 00:27:12;;;;;;;4.87;4.43;;;7.90;99.90;;;;;;5006605;28;21281;-78
2022/10/04 00:29:42;;;;;;;4.10;3.13;;;7.90;99.90;;;;;;5006360;28;20641;-76
2022/10/04 00:32:26;;;;;;;7.10;4.47;;;8.10;99.90;;;;;;5006729;28;20627;-77
2022/10/04 00:34:54;;;;;;;4.93;2.67;;;8.00;99.90;;;;;;5013697;28;21103;-77
2022/10/04 00:37:22;;;;;;;4.37;3.93;;;8.00;99.90;;;;;;5026276;28;20788;-77
2022/10/04 00:39:59;;;;;;;3.83;3.07;;;7.90;99.90;;;;;;5029700;28;20634;-77
2022/10/04 00:42:45;;;;;;;2.70;2.50;;;7.90;99.90;;;;;;5030226;28;20625;-77
2022/10/04 00:45:29;;;;;;;7.93;3.40;;;7.80;99.90;;;;;;5029779;28;20741;-77
2022/10/04 00:48:30;;;;;;;4.67;3.10;;;7.80;99.90;;;;;;5030522;28;21014;-77
2022/10/04 00:51:02;;;;;;;8.53;2.63;;;7.90;99.90;;;;;;5026244;28;20618;-77
2022/10/04 00:53:44;;;;;;;7.03;3.40;;;8.00;99.90;;;;;;5029775;28;20631;-77
2022/10/04 00:56:19;;;;;;;3.13;2.83;;;7.90;99.90;;;;;;5025919;28;20661;-77
2022/10/04 00:59:06;;;;;;;4.30;3.33;;;8.00;99.90;;;;;;5020777;28;20634;-76
2022/10/04 01:01:36;;;;;;;3.37;3.07;;;8.00;99.90;;;;;;5013170;28;20653;-77
2022/10/04 01:04:06;;;;;;;4.10;3.10;;;8.10;99.90;;;;;;5028367;28;20850;-77
2022/10/04 01:06:36;;;;;;;4.47;3.37;;;7.90;99.90;;;;;;5028189;28;20758;-77
2022/10/04 01:09:07;;;;;;;3.77;3.40;;;7.90;99.90;;;;;;5028417;28;20631;-76
2022/10/04 01:11:41;;;;;;;3.03;2.63;;;7.80;99.90;;;;;;5029504;28;20642;-76
2022/10/04 01:14:14;;;;;;;4.43;3.10;;;7.80;99.90;;;;;;5029092;28;21168;-76
2022/10/04 01:16:42;;;;;;;4.10;3.37;;;7.70;99.90;;;;;;5029851;28;21010;-76
2022/10/04 01:19:31;;;;;;;3.20;2.90;;;7.80;99.90;;;;;;5029623;28;20623;-77
2022/10/04 01:22:10;;;;;;;4.00;3.60;;;7.90;99.90;;;;;;5029425;28;20619;-77
2022/10/04 01:24:40;;;;;;;3.77;3.33;;;7.80;99.90;;;;;;5028522;28;20971;-76
2022/10/04 01:27:32;;;;;;;3.30;3.00;;;7.70;99.90;;;;;;5029571;28;20603;-76
2022/10/04 01:30:00;;;;;;;5.00;3.30;;;7.70;99.90;;;;;;5029070;28;21017;-76
2022/10/04 01:32:27;;;;;;;3.80;3.40;;;7.70;99.90;;;;;;5029364;28;20667;-77
2022/10/04 01:34:56;;;;;;;4.20;2.83;;;7.50;99.90;;;;;;5028439;28;21018;-76
2022/10/04 01:37:23;;;;;;;3.13;2.00;;;7.50;99.90;;;;;;5028997;28;21042;-77
2022/10/04 01:39:51;;;;;;;4.13;3.13;;;7.50;99.90;;;;;;5029300;28;20619;-77
2022/10/04 01:42:23;;;;;;;3.03;2.27;;;7.30;99.90;;;;;;5029062;28;20258;-77
2022/10/04 01:44:56;;;;;;;2.47;1.90;;;7.50;99.90;;;;;;5028547;28;20607;-76
2022/10/04 01:47:29;;;;;;;2.30;2.20;;;7.50;99.90;;;;;;5028554;28;20626;-77
2022/10/04 01:49:59;;;;;;;2.87;2.40;;;7.60;99.90;;;;;;5028581;28;20618;-77
2022/10/04 01:52:31;;;;;;;4.07;3.40;;;7.70;99.90;;;;;;5028536;28;21169;-77
2022/10/04 01:55:06;;;;;;;2.75;2.55;;;7.70;99.90;;;;;;5027972;28;20624;-77
2022/10/04 01:57:37;;;;;;;3.27;2.97;;;7.80;99.90;;;;;;5028741;28;20720;-76
2022/10/04 02:00:07;;;;;;;3.23;3.03;;;7.80;99.90;;;;;;5028358;28;20980;-76
2022/10/04 02:02:39;;;;;;;2.42;2.33;;;7.80;99.90;;;;;;5029062;28;20614;-75
2022/10/04 02:05:11;;;;;;;2.60;2.40;;;7.80;99.90;;;;;;5028206;28;20205;-77
2022/10/04 02:07:40;;;;;;;4.40;4.00;;;7.70;99.90;;;;;;5028696;28;20654;-76
2022/10/04 02:10:12;;;;;;;4.28;3.88;;;7.70;99.90;;;;;;5027734;28;20643;-77
2022/10/04 02:12:44;;;;;;;3.27;2.93;;;7.70;99.90;;;;;;5028456;28;20204;-76
2022/10/04 02:15:13;;;;;;;7.80;4.27;;;7.60;99.90;;;;;;5027607;28;20611;-77
2022/10/04 02:17:43;;;;;;;3.92;3.35;;;7.60;99.90;;;;;;5028258;28;20647;-76
2022/10/04 02:20:15;;;;;;;3.00;2.80;;;7.70;99.90;;;;;;5028438;28;20203;-77
2022/10/04 02:22:43;;;;;;;3.27;2.97;;;7.70;99.90;;;;;;5027911;28;21418;-77
2022/10/04 02:25:14;;;;;;;4.07;3.58;;;7.50;99.90;;;;;;5027502;28;20994;-76
2022/10/04 02:27:41;;;;;;;5.43;4.20;;;7.40;99.90;;;;;;5028273;28;20279;-76
2022/10/04 02:30:10;;;;;;;2.65;2.45;;;7.30;99.90;;;;;;5028382;28;20620;-76
2022/10/04 02:32:56;;;;;;;6.43;3.58;;;7.30;99.90;;;;;;5028209;28;20675;-76
2022/10/04 02:35:26;;;;;;;4.10;3.20;;;7.30;99.90;;;;;;5027103;28;20204;-77
2022/10/04 02:38:00;;;;;;;4.80;2.53;;;7.40;99.90;;;;;;5028285;28;20220;-77
2022/10/04 02:40:32;;;;;;;6.90;4.50;;;7.50;99.90;;;;;;5027942;28;20606;-76
2022/10/04 02:43:02;;;;;;;3.57;3.07;;;7.50;99.90;;;;;;5028312;28;20618;-76
2022/10/04 02:45:39;;;;;;;2.47;2.25;;;7.50;99.90;;;;;;5027109;28;20627;-76
2022/10/04 02:48:26;;;;;;;3.70;2.65;;;7.40;99.90;;;;;;5027565;28;20671;-77
2022/10/04 02:50:57;;;;;;;7.43;3.50;;;7.40;99.90;;;;;;5028345;28;20729;-76
2022/10/04 02:53:34;;;;;;;3.53;3.23;;;7.40;99.90;;;;;;5027687;28;20719;-77
2022/10/04 02:56:03;;;;;;;9.82;4.05;;;7.40;99.90;;;;;;5026933;28;21212;-78
2022/10/04 02:58:32;;;;;;;2.40;2.20;;;7.40;99.90;;;;;;5020972;28;20296;-76
2022/10/04 03:01:00;;;;;;;4.88;3.28;;;7.50;99.90;;;;;;5018362;28;20197;-76
2022/10/04 03:03:29;;;;;;;5.00;3.33;;;7.60;99.90;;;;;;5027360;28;20286;-77
2022/10/04 03:06:06;;;;;;;3.40;2.63;;;7.60;99.90;;;;;;5027142;28;20215;-77
2022/10/04 03:08:37;;;;;;;2.77;2.27;;;7.50;99.90;;;;;;5026186;28;20666;-77
2022/10/04 03:11:05;;;;;;;4.30;3.20;;;7.40;99.90;;;;;;5027987;28;21008;-76
2022/10/04 03:13:36;;;;;;;4.30;3.20;;;7.60;99.90;;;;;;5027485;28;20615;-76
2022/10/04 03:16:03;;;;;;;4.47;2.57;;;7.70;99.90;;;;;;5027378;28;20628;-76
2022/10/04 03:18:32;;;;;;;3.33;3.00;;;7.70;99.90;;;;;;5027272;28;20647;-76
2022/10/04 03:21:02;;;;;;;3.20;2.90;;;7.70;99.90;;;;;;5027137;28;20204;-78
2022/10/04 03:23:30;;;;;;;3.85;3.40;;;7.50;99.90;;;;;;5027604;28;20211;-77
2022/10/04 03:26:03;;;;;;;3.17;2.87;;;7.60;99.90;;;;;;5026556;28;20207;-76
2022/10/04 03:28:31;;;;;;;3.35;3.05;;;7.50;99.90;;;;;;5026913;28;20628;-77
2022/10/04 03:30:58;;;;;;;3.80;2.90;;;7.40;99.90;;;;;;5007666;28;20654;-77
2022/10/04 03:33:27;;;;;;;6.25;3.63;;;7.40;99.90;;;;;;5018682;28;20283;-76
2022/10/04 03:35:57;;;;;;;3.65;3.30;;;7.30;99.90;;;;;;5026773;28;20220;-76
2022/10/04 03:38:25;;;;;;;3.47;2.67;;;7.20;99.90;;;;;;5027430;28;20232;-76
2022/10/04 03:40:55;;;;;;;4.00;3.15;;;7.20;99.90;;;;;;5027010;28;20623;-76
2022/10/04 03:43:26;;;;;;;2.30;2.13;;;7.00;99.90;;;;;;5027302;28;20678;-77
2022/10/04 03:45:56;;;;;;;3.83;2.93;;;7.10;99.90;;;;;;5026648;28;20671;-76
2022/10/04 03:48:30;;;;;;;3.58;2.67;;;7.20;99.90;;;;;;5026813;28;21188;-76
2022/10/04 03:50:58;;;;;;;2.55;2.35;;;7.20;99.90;;;;;;5028484;28;20583;-76
2022/10/04 03:53:30;;;;;;;3.20;2.90;;;7.20;99.90;;;;;;5027733;28;20696;-76
2022/10/04 03:55:58;;;;;;;2.03;1.77;;;7.10;99.90;;;;;;5045399;28;20626;-76
2022/10/04 03:58:28;;;;;;;3.53;3.22;;;6.90;99.90;;;;;;5041476;28;20267;-76
2022/10/04 04:01:09;;;;;;;4.05;2.13;;;6.90;99.90;;;;;;5027274;28;20296;-76
2022/10/04 04:03:48;;;;;;;5.55;2.75;;;7.00;99.90;;;;;;5018997;28;20205;-76
2022/10/04 04:06:18;;;;;;;5.45;2.47;;;7.10;99.90;;;;;;5022436;28;20208;-76
2022/10/04 04:08:48;;;;;;;3.85;2.60;;;7.30;99.90;;;;;;5026862;28;20208;-76
2022/10/04 04:11:20;;;;;;;3.70;2.67;;;7.30;99.90;;;;;;5026887;28;20211;-76
2022/10/04 04:13:50;;;;;;;3.72;2.75;;;7.40;99.90;;;;;;5028150;28;20644;-76
2022/10/04 04:16:20;;;;;;;3.15;2.30;;;7.30;99.90;;;;;;5030451;28;20796;-77
2022/10/04 04:18:49;;;;;;;2.25;2.05;;;7.40;99.90;;;;;;5031271;28;20220;-76
2022/10/04 04:21:18;;;;;;;3.13;2.83;;;7.40;99.90;;;;;;5031000;28;20208;-78
2022/10/04 04:23:49;;;;;;;4.63;3.83;;;7.30;99.90;;;;;;5030846;28;21053;-76
2022/10/04 04:26:21;;;;;;;3.47;3.08;;;7.40;99.90;;;;;;5030366;28;20204;-76
2022/10/04 04:28:51;;;;;;;2.75;2.55;;;7.40;99.90;;;;;;5031850;28;20204;-77
2022/10/04 04:31:24;;;;;;;2.90;2.70;;;7.30;99.90;;;;;;5027264;28;20213;-78
2022/10/04 04:33:58;;;;;;;4.00;2.95;;;7.30;99.90;;;;;;5019956;28;20229;-79
2022/10/04 04:36:26;;;;;;;4.53;4.00;;;7.30;99.90;;;;;;5019152;28;20288;-78
2022/10/04 04:41:41;;;;;;;2.88;2.60;;;7.20;99.90;;;;;;5023936;28;20938;-80
2022/10/04 04:44:17;;;;;;;2.83;2.55;;;7.30;99.90;;;;;;5021962;28;20204;-79
2022/10/04 04:46:46;;;;;;;3.27;2.90;;;7.30;99.90;;;;;;5020227;28;20684;-80
2022/10/04 04:49:16;;;;;;;3.97;2.13;;;7.40;99.90;;;;;;5021876;28;20633;-77
2022/10/04 04:51:50;;;;;;;4.45;3.65;;;7.50;99.90;;;;;;5020698;28;20701;-77
2022/10/04 04:54:19;;;;;;;2.70;2.50;;;7.50;99.90;;;;;;5021724;28;20583;-77
2022/10/04 04:56:49;;;;;;;4.63;3.60;;;7.50;99.90;;;;;;5029491;28;20751;-77
2022/10/04 04:59:16;;;;;;;4.23;3.87;;;7.50;99.90;;;;;;5029955;28;20555;-77
2022/10/04 05:01:46;;;;;;;3.25;3.03;;;7.50;99.90;;;;;;5029554;28;20730;-77
2022/10/04 05:04:19;;;;;;;3.87;2.53;;;7.40;99.90;;;;;;5027110;28;20659;-78
2022/10/04 05:06:47;;;;;;;2.83;2.30;;;7.30;99.90;;;;;;5028150;28;20637;-78
2022/10/04 05:09:25;;;;;;;3.60;2.35;;;7.20;99.90;;;;;;5029079;28;20626;-79
2022/10/04 05:11:55;;;;;;;4.20;3.10;;;7.10;99.90;;;;;;5028553;28;20208;-78
2022/10/04 05:14:22;;;;;;;3.92;2.35;;;7.00;99.90;;;;;;5028174;28;20622;-79
2022/10/04 05:16:52;;;;;;;5.23;3.40;;;7.00;99.90;;;;;;5028750;28;20291;-79
2022/10/04 05:19:22;;;;;;;2.35;2.15;;;6.80;99.90;;;;;;5028702;28;21212;-79
2022/10/04 05:21:51;;;;;;;5.60;4.10;;;6.70;99.90;;;;;;5029153;28;20647;-78
2022/10/04 05:24:23;;;;;;;2.50;2.13;;;6.80;99.90;;;;;;5028802;28;20630;-79
2022/10/04 05:26:52;;;;;;;2.83;2.60;;;6.70;99.90;;;;;;5029857;28;20303;-78
2022/10/04 05:29:22;;;;;;;4.05;2.97;;;6.70;99.90;;;;;;5027241;28;20686;-78
2022/10/04 05:32:03;;;;;;;1.90;1.80;;;6.80;99.90;;;;;;5029609;28;20288;-78
2022/10/04 05:34:38;;;;;;;3.10;2.75;;;6.90;99.90;;;;;;5009095;28;20280;-78
2022/10/04 05:37:41;;;;;;;3.22;2.22;;;7.00;99.90;;;;;;5010458;28;20274;-78
2022/10/04 05:40:29;;;;;;;3.23;2.43;;;7.00;99.90;;;;;;4987798;28;20217;-79
2022/10/04 05:42:58;;;;;;;3.53;2.78;;;7.10;99.90;;;;;;5029145;28;20633;-78
2022/10/04 05:45:27;;;;;;;2.65;2.08;;;7.10;99.90;;;;;;5028210;28;20794;-79
2022/10/04 05:47:57;;;;;;;5.40;3.00;;;7.10;99.90;;;;;;5029942;28;20211;-78
2022/10/04 05:50:31;;;;;;;2.42;2.20;;;7.20;99.90;;;;;;5029482;28;20686;-77
2022/10/04 05:53:15;;;;;;;3.85;2.80;;;7.30;99.90;;;;;;5029233;28;20264;-78
2022/10/04 05:55:51;;;;;;;5.28;1.88;;;7.40;99.90;;;;;;5029063;28;20214;-79
2022/10/04 05:58:41;;;;;;;2.15;1.92;;;7.40;99.90;;;;;;5029346;28;20706;-78
2022/10/04 06:01:27;;;;;;;3.92;2.17;;;7.40;99.90;;;;;;5028893;28;20727;-78
2022/10/04 06:04:15;;;;;;;3.50;3.20;;;7.50;99.90;;;;;;5017984;28;20246;-80
2022/10/04 06:06:48;;;;;;;2.55;2.35;;;7.50;99.90;;;;;;5027959;28;20196;-78
2022/10/04 06:09:31;;;;;;;3.22;3.03;;;7.50;99.90;;;;;;5029480;28;20212;-78
2022/10/04 06:12:04;;;;;;;4.00;2.75;;;7.50;99.90;;;;;;5028823;28;20204;-79
2022/10/04 06:15:02;;;;;;;3.60;2.75;;;7.60;99.90;;;;;;5028623;28;20212;-78
2022/10/04 06:18:09;;;;;;;3.77;3.43;;;7.60;99.90;;;;;;5028660;28;20569;-78
2022/10/04 06:21:09;;;;;;;2.27;2.10;;;7.70;99.90;;;;;;4986859;28;20751;-78
2022/10/04 06:23:45;;;;;;;3.65;3.35;;;7.70;99.90;;;;;;5028413;28;20650;-79
2022/10/04 06:26:18;;;;;;;10.07;3.43;;;7.70;99.90;;;;;;5028533;28;20205;-78
2022/10/04 06:28:49;;;;;;;3.50;3.20;;;7.60;99.90;;;;;;5028350;28;21204;-79
2022/10/04 06:32:07;;;;;;;5.73;4.20;;;7.70;99.90;;;;;;5028924;28;20725;-78
2022/10/04 06:35:07;;;;;;;3.03;2.78;;;7.70;99.90;;;;;;5028248;28;20742;-78
2022/10/04 06:38:09;;;;;;;12.38;4.55;;;7.60;99.90;;;;;;5002256;28;20251;-79
2022/10/04 06:41:17;;;;;;;3.20;2.95;;;7.60;99.90;;;;;;5028225;28;20208;-78
2022/10/04 06:44:01;;;;;;;3.53;2.73;;;7.70;99.90;;;;;;5028692;28;20208;-79
2022/10/04 06:46:35;;;;;;;3.97;2.83;;;7.80;99.90;;;;;;5028239;28;20631;-79
2022/10/04 06:49:22;;;;;;;1.73;1.60;;;7.90;99.90;;;;;;5028437;28;21208;-78
2022/10/04 06:52:18;;;;;;;6.67;2.70;;;8.10;99.90;;;;;;5028271;28;20637;-78
2022/10/04 06:55:06;;;;;;;7.30;3.70;;;8.10;99.90;;;;;;5028082;28;21036;-78
2022/10/04 06:57:52;;;;;;;2.37;2.17;;;8.30;99.90;;;;;;5028436;28;20623;-79
2022/10/04 07:00:22;;;;;;;2.80;2.27;;;8.40;99.90;;;;;;5008747;28;20628;-78
2022/10/04 07:02:52;;;;;;;4.60;2.10;;;8.50;99.90;;;;;;5027406;28;20717;-78
2022/10/04 07:05:29;;;;;;;5.87;3.60;;;8.50;99.90;;;;;;5027401;28;20635;-79
2022/10/04 07:08:06;;;;;;;3.70;3.27;;;8.60;99.90;;;;;;5028414;28;21160;-78
2022/10/04 07:10:40;;;;;;;2.17;2.00;;;8.50;99.90;;;;;;5028460;28;20599;-79
2022/10/04 07:13:32;;;;;;;2.03;1.93;;;8.60;99.90;;;;;;5028507;28;20619;-79
2022/10/04 07:16:03;;;;;;;2.97;2.10;;;8.60;99.90;;;;;;5027206;28;20646;-79
2022/10/04 07:18:35;;;;;;;2.87;2.50;;;8.70;99.90;;;;;;5028205;28;20653;-78
2022/10/04 07:21:07;;;;;;;3.20;2.27;;;8.80;99.90;;;;;;5027818;28;20623;-79
2022/10/04 07:23:39;;;;;;;3.23;2.93;;;8.70;99.90;;;;;;5028324;28;20634;-79
2022/10/04 07:26:18;;;;;;;2.03;1.90;;;8.80;99.90;;;;;;5027164;28;21390;-78
2022/10/04 07:31:34;;;;;;;2.80;2.60;;;8.90;99.90;;;;;;5028136;28;20595;-79
2022/10/04 07:34:08;;;;;;;2.47;1.87;;;8.90;99.90;;;;;;5028317;28;21238;-79
2022/10/04 07:36:43;;;;;;;2.63;2.03;;;9.00;99.90;;;;;;5027895;28;20621;-78
2022/10/04 07:39:14;;;;;;;1.63;1.53;;;9.10;99.90;;;;;;5027697;28;20658;-79
2022/10/04 07:41:50;;;;;;;5.07;2.60;;;9.00;99.90;;;;;;5027523;28;20622;-79
2022/10/04 07:44:26;;;;;;;5.23;2.90;;;9.00;99.90;;;;;;5027113;28;21396;-78
2022/10/04 07:46:58;;;;;;;3.57;3.00;;;9.20;99.90;;;;;;5028019;28;20722;-79
2022/10/04 07:49:25;;;;;;;2.83;2.03;;;9.20;99.90;;;;;;5031582;28;20715;-79
2022/10/04 07:52:24;;;;;;;2.00;1.90;;;9.30;99.90;;;;;;5031769;28;20629;-79
2022/10/04 07:55:01;;;;;;;4.50;3.17;;;9.30;99.90;;;;;;5031501;28;20654;-79
2022/10/04 07:57:38;;;;;;;4.57;3.10;;;9.40;99.90;;;;;;5031840;28;20623;-79
2022/10/04 08:00:13;;;;;;;4.30;3.00;;;9.40;99.90;;;;;;5031416;28;20680;-78
2022/10/04 08:02:53;;;;;;;3.43;3.03;;;9.50;99.90;;;;;;5031621;28;21172;-79
2022/10/04 08:05:23;;;;;;;7.73;2.60;;;9.50;99.90;;;;;;5031437;28;20658;-79
2022/10/04 08:08:20;;;;;;;3.40;3.10;;;9.60;99.90;;;;;;5031584;28;20653;-78
2022/10/04 08:10:55;;;;;;;3.80;3.00;;;9.80;99.90;;;;;;5031065;28;20641;-79
2022/10/04 08:13:33;;;;;;;2.97;2.67;;;9.80;99.90;;;;;;5031378;28;20634;-80
2022/10/04 08:16:04;;;;;;;3.03;2.73;;;9.80;99.90;;;;;;5030946;28;21458;-79
2022/10/04 08:18:43;;;;;;;3.13;2.13;;;9.90;99.90;;;;;;5031565;28;20655;-79
2022/10/04 08:21:15;;;;;;;3.53;2.77;;;9.90;99.90;;;;;;5031032;28;20634;-78
2022/10/04 08:23:56;;;;;;;4.20;2.20;;;10.00;99.90;;;;;;5014129;28;20666;-79
2022/10/04 08:26:43;;;;;;;5.87;4.33;;;10.10;99.90;;;;;;5011261;28;21248;-79
2022/10/04 08:29:42;;;;;;;3.63;2.47;;;10.20;99.90;;;;;;5014591;28;20631;-79
2022/10/04 08:32:26;;;;;;;5.00;2.47;;;10.30;99.90;;;;;;5031176;28;20622;-78
2022/10/04 08:35:28;;;;;;;3.97;3.67;;;10.30;99.90;;;;;;5030336;28;20753;-78
2022/10/04 08:38:20;;;;;;;4.40;4.10;;;10.40;99.90;;;;;;5019531;28;20639;-79
2022/10/04 08:41:25;;;;;;;2.50;2.30;;;10.50;99.90;;;;;;5030908;28;20631;-79
2022/10/04 08:44:22;;;;;;;4.20;3.70;;;10.50;99.90;;;;;;5030834;28;20645;-79
2022/10/04 08:47:20;;;;;;;2.83;2.63;;;10.60;99.90;;;;;;5030988;28;20689;-79
2022/10/04 08:50:23;;;;;;;2.67;2.47;;;10.60;99.90;;;;;;5030559;28;20641;-79
2022/10/04 08:53:06;;;;;;;3.90;3.60;;;10.70;99.90;;;;;;5030404;28;20625;-79
2022/10/04 08:56:05;;;;;;;3.47;3.13;;;10.80;99.90;;;;;;5030634;28;20611;-79
2022/10/04 08:59:06;;;;;;;4.40;3.97;;;10.80;99.90;;;;;;5023511;28;20656;-79
2022/10/04 09:01:56;;;;;;;5.20;4.43;;;10.90;99.90;;;;;;5014602;28;20626;-79
2022/10/04 09:05:03;;;;;;;7.27;4.97;;;10.90;99.90;;;;;;5029885;28;21497;-79
2022/10/04 09:07:56;;;;;;;6.57;3.37;;;10.90;99.90;;;;;;5031029;28;21006;-79
2022/10/04 09:10:43;;;;;;;6.27;3.93;;;11.00;99.90;;;;;;5030411;28;20677;-79
2022/10/04 09:13:35;;;;;;;3.83;3.00;;;11.20;99.90;;;;;;5030267;28;20697;-79
2022/10/04 09:16:17;;;;;;;3.30;2.23;;;11.30;99.90;;;;;;5028867;28;20647;-79
2022/10/04 09:19:02;;;;;;;2.53;2.30;;;11.40;99.90;;;;;;5030284;28;20647;-79
2022/10/04 09:21:43;;;;;;;2.73;2.07;;;11.50;99.90;;;;;;5029522;28;20626;-79
2022/10/04 09:24:33;;;;;;;2.57;2.37;;;11.50;99.90;;;;;;5010224;28;20634;-80
2022/10/04 09:27:15;;;;;;;2.23;2.03;;;11.60;99.90;;;;;;5010402;28;20660;-80
2022/10/04 09:30:04;;;;;;;5.93;2.83;;;11.70;99.90;;;;;;5010204;28;20628;-79
2022/10/04 09:33:03;;;;;;;3.07;2.63;;;11.80;99.90;;;;;;5027855;28;21510;-79
2022/10/04 09:35:58;;;;;;;3.83;1.50;;;11.90;99.90;;;;;;5029427;28;20654;-79
2022/10/04 09:38:56;;;;;;;3.57;3.27;;;12.00;99.90;;;;;;5029938;28;20653;-79
2022/10/04 09:41:51;;;;;;;2.37;2.17;;;12.20;99.90;;;;;;5030034;28;20618;-79
2022/10/04 09:44:53;;;;;;;3.83;3.37;;;12.30;99.90;;;;;;5025444;28;20645;-79
2022/10/04 09:47:36;;;;;;;2.73;2.27;;;12.40;99.90;;;;;;5029439;28;20696;-79
2022/10/04 09:50:36;;;;;;;3.43;2.20;;;12.30;99.90;;;;;;5029965;28;20630;-80
2022/10/04 09:53:30;;;;;;;2.50;2.30;;;12.30;99.90;;;;;;5009783;28;20628;-79
2022/10/04 09:56:19;;;;;;;5.37;3.13;;;12.40;99.90;;;;;;5020171;28;20623;-79
2022/10/04 09:59:02;;;;;;;3.77;2.80;;;12.50;99.90;;;;;;5016554;28;20667;-79
2022/10/04 10:01:35;;;;;;;6.67;3.30;;;12.50;99.90;;;;;;5029183;28;20665;-79
2022/10/04 10:04:39;;;;;;;2.63;2.37;;;12.50;99.90;;;;;;5029506;28;20952;-79
2022/10/04 10:07:29;;;;;;;2.93;2.13;;;12.60;99.90;;;;;;5027131;28;20639;-79
2022/10/04 10:13:41;;;;;;;2.80;2.60;;;12.90;99.90;;;;;;5028167;28;20615;-79
2022/10/04 10:16:31;;;;;;;2.23;2.03;;;12.90;99.90;;;;;;4966190;28;20630;-79
2022/10/04 10:19:14;;;;;;;2.27;2.07;;;12.90;99.90;;;;;;5019366;28;20753;-78
2022/10/04 10:21:55;;;;;;;2.10;1.90;;;13.00;99.90;;;;;;5028497;28;20627;-78
2022/10/04 10:24:44;;;;;;;2.43;1.97;;;13.10;99.90;;;;;;5008820;28;20619;-79
2022/10/04 10:27:49;;;;;;;2.50;2.30;;;13.10;99.90;;;;;;5008497;28;20630;-79
2022/10/04 10:30:24;;;;;;;2.27;2.13;;;13.20;99.90;;;;;;5017331;28;20738;-80
2022/10/04 10:33:20;;;;;;;2.92;2.40;;;13.30;99.90;;;;;;5028515;28;20754;-79
2022/10/04 10:36:00;;;;;;;2.23;1.90;;;13.30;99.90;;;;;;5010826;28;20221;-78
2022/10/04 10:38:42;;;;;;;2.60;2.10;;;13.50;99.90;;;;;;5009235;28;20615;-78
2022/10/04 10:41:34;;;;;;;2.40;2.20;;;13.50;99.90;;;;;;5012705;28;21090;-79
2022/10/04 10:44:18;;;;;;;3.67;1.83;;;13.50;99.90;;;;;;5028767;28;20571;-79
2022/10/04 10:47:05;;;;;;;4.22;2.70;;;13.50;99.90;;;;;;5027219;28;20750;-79
2022/10/04 10:49:48;;;;;;;2.33;2.00;;;13.60;99.90;;;;;;5010879;28;20205;-79
2022/10/04 10:52:50;;;;;;;1.73;1.33;;;13.70;99.90;;;;;;5021294;28;21015;-79
2022/10/04 10:55:34;;;;;;;2.33;1.57;;;13.70;99.90;;;;;;5026626;28;20662;-81
2022/10/04 10:58:40;;;;;;;3.33;1.80;;;13.80;99.90;;;;;;5020737;28;20724;-80
2022/10/04 11:01:30;;;;;;;2.23;2.13;;;13.90;99.90;;;;;;5020908;28;20988;-79
2022/10/04 11:04:28;;;;;;;2.37;2.10;;;14.00;99.90;;;;;;5019243;28;20745;-80
2022/10/04 11:07:30;;;;;;;1.90;1.20;;;14.00;99.90;;;;;;5018564;28;20611;-80
2022/10/04 11:10:38;;;;;;;2.97;2.10;;;14.20;99.90;;;;;;5010736;28;20636;-80
2022/10/04 11:13:29;;;;;;;2.07;1.87;;;14.20;99.90;;;;;;5018280;28;20627;-80
2022/10/04 11:16:34;;;;;;;3.70;2.27;;;14.20;99.90;;;;;;5022197;28;20616;-80
2022/10/04 11:19:39;;;;;;;1.77;1.67;;;14.20;99.90;;;;;;5020909;28;20650;-80
2022/10/04 11:22:58;;;;;;;3.30;2.20;;;14.30;99.90;;;;;;5020144;28;20712;-79
2022/10/04 11:25:53;;;;;;;1.07;0.90;;;14.30;99.90;;;;;;4994519;28;20624;-79
2022/10/04 11:28:30;;;;;;;1.67;1.57;;;14.30;99.90;;;;;;4995475;28;20659;-80
2022/10/04 11:31:36;;;;;;;1.70;1.60;;;14.40;99.90;;;;;;5011073;28;20623;-80
2022/10/04 11:34:49;;;;;;;1.83;1.50;;;14.50;99.90;;;;;;5018507;28;20630;-80
2022/10/04 11:37:21;;;;;;;1.60;1.50;;;14.60;99.90;;;;;;5020291;28;20627;-80
2022/10/04 11:40:16;;;;;;;2.07;1.90;;;14.70;99.90;;;;;;5017897;28;21302;-81
2022/10/04 11:42:59;;;;;;;1.40;1.30;;;14.90;99.90;;;;;;5018050;28;20635;-80
2022/10/04 11:45:47;;;;;;;1.63;1.53;;;14.90;99.90;;;;;;5017206;28;21213;-80
2022/10/04 11:48:33;;;;;;;2.47;1.67;;;14.90;99.90;;;;;;5018793;28;21095;-80
2022/10/04 11:51:21;;;;;;;1.03;1.03;;;15.00;99.90;;;;;;5018911;28;20618;-81
2022/10/04 11:54:37;;;;;;;2.60;1.93;;;15.10;99.90;;;;;;5018255;28;21558;-80
2022/10/04 11:57:30;;;;;;;3.43;2.10;;;15.10;99.40;;;;;;5018416;28;20662;-80
2022/10/04 12:00:07;;;;;;;1.60;1.40;;;15.20;99.60;;;;;;5019209;28;20695;-80
2022/10/04 12:02:53;;;;;;;1.93;1.83;;;15.30;99.20;;;;;;5018827;28;20653;-80
2022/10/04 12:05:38;;;;;;;1.60;1.50;;;15.30;99.90;;;;;;5020586;28;20681;-82
2022/10/04 12:08:26;;;;;;;1.70;1.47;;;15.30;99.80;;;;;;5018606;28;21051;-80
2022/10/04 12:11:24;;;;;;;2.03;1.93;;;15.40;99.90;;;;;;5021754;28;20615;-80
2022/10/04 12:14:09;;;;;;;0.97;0.80;;;15.40;99.50;;;;;;5016284;28;21080;-80
2022/10/04 12:16:55;;;;;;;1.53;1.40;;;15.40;99.90;;;;;;5019616;28;20668;-81
2022/10/04 12:19:54;;;;;;;3.03;1.77;;;15.50;99.90;;;;;;5018374;28;20655;-81
2022/10/04 12:22:52;;;;;;;2.47;1.40;;;15.60;99.50;;;;;;4979567;28;20744;-80
2022/10/04 12:25:41;;;;;;;2.23;2.00;;;15.70;99.80;;;;;;5018054;28;20611;-81
2022/10/04 12:28:29;;;;;;;1.87;1.77;;;15.80;99.60;;;;;;5017768;28;21173;-81
2022/10/04 12:31:21;;;;;;;1.67;1.50;;;15.80;99.40;;;;;;5017881;28;20615;-81
2022/10/04 12:33:58;;;;;;;2.13;1.93;;;15.90;99.20;;;;;;5018056;28;20670;-80
2022/10/04 12:36:35;;;;;;;2.10;1.90;;;16.00;98.80;;;;;;5017688;28;20634;-80
2022/10/04 12:39:24;;;;;;;3.13;2.07;;;16.00;99.40;;;;;;5021257;28;20623;-80
2022/10/04 12:42:01;;;;;;;2.10;1.87;;;16.00;99.00;;;;;;5021639;28;20627;-80
2022/10/04 12:44:40;;;;;;;2.35;2.15;;;16.00;99.00;;;;;;5017747;28;20754;-79
2022/10/04 12:47:50;;;;;;;2.83;2.63;;;16.00;99.20;;;;;;5021818;28;20209;-80
2022/10/04 12:50:30;;;;;;;3.07;2.50;;;16.00;99.10;;;;;;5021049;28;20627;-80
2022/10/04 12:53:05;;;;;;;3.40;2.55;;;16.10;98.20;;;;;;5020323;28;20978;-80
2022/10/04 12:56:02;;;;;;;1.87;1.70;;;16.10;98.50;;;;;;5020394;28;20834;-81
2022/10/04 12:58:42;;;;;;;2.07;1.70;;;16.20;98.20;;;;;;5020391;28;21186;-80
2022/10/04 13:01:17;;;;;;;1.53;1.43;;;16.20;98.50;;;;;;5025848;28;20659;-79
2022/10/04 13:04:05;;;;;;;1.67;1.57;;;16.30;98.50;;;;;;5019933;28;21284;-80
2022/10/04 13:06:37;;;;;;;1.60;1.50;;;16.30;98.40;;;;;;5022410;28;21057;-80
2022/10/04 13:09:14;;;;;;;2.30;1.23;;;16.30;98.00;;;;;;5018839;28;20719;-78
2022/10/04 13:11:59;;;;;;;2.60;2.40;;;16.30;98.00;;;;;;5022579;28;21251;-78
2022/10/04 13:15:17;;;;;;;2.43;1.80;;;16.20;97.90;;;;;;5018961;28;20635;-80
2022/10/04 13:17:51;;;;;;;1.83;1.73;;;16.30;97.30;;;;;;5001209;28;20709;-79
2022/10/04 13:20:42;;;;;;;2.30;1.87;;;16.40;97.40;;;;;;5022317;28;20669;-78
2022/10/04 13:23:26;;;;;;;1.90;1.20;;;16.30;97.40;;;;;;5016991;28;20635;-80
2022/10/04 13:26:06;;;;;;;2.40;2.10;;;16.30;97.50;;;;;;5020967;28;20644;-79
2022/10/04 13:28:47;;;;;;;2.17;1.90;;;16.30;97.50;;;;;;5019483;28;20623;-78
2022/10/04 13:31:23;;;;;;;1.43;1.33;;;16.30;98.30;;;;;;5019755;28;20620;-78
2022/10/04 13:33:57;;;;;;;1.00;1.00;;;16.30;99.10;;;;;;5022410;28;20634;-78
2022/10/04 13:36:44;;;;;;;1.90;1.53;;;16.30;98.90;;;;;;5018231;28;20746;-78
2022/10/04 13:39:31;;;;;;;1.90;1.73;;;16.30;98.50;;;;;;5022542;28;20680;-77
2022/10/04 13:42:13;;;;;;;1.60;1.50;;;16.40;98.10;;;;;;5020786;28;20619;-79
2022/10/04 13:45:01;;;;;;;2.83;1.50;;;16.40;97.90;;;;;;5019186;28;20620;-79
2022/10/04 13:47:53;;;;;;;1.53;1.43;;;16.50;97.60;;;;;;5024576;28;20979;-79
2022/10/04 13:50:33;;;;;;;1.60;1.50;;;16.50;97.10;;;;;;5019219;28;20643;-79
2022/10/04 13:58:53;;;;;;;1.23;1.10;;;16.60;96.70;;;;;;5007528;28;20648;-79
2022/10/04 14:01:47;;;;;;;1.50;1.17;;;16.50;96.50;;;;;;5019321;28;21211;-78
2022/10/04 14:04:36;;;;;;;1.47;1.30;;;16.60;96.60;;;;;;4997483;28;20624;-78
2022/10/04 14:07:28;;;;;;;1.00;1.00;;;16.70;95.40;;;;;;5020256;28;20623;-79
2022/10/04 14:10:12;;;;;;;1.30;1.20;;;16.80;98.20;;;;;;5013924;28;21003;-80
2022/10/04 14:13:08;;;;;;;1.80;1.20;;;16.70;97.70;;;;;;5019036;28;20631;-79
2022/10/04 14:16:13;;;;;;;5.70;1.40;;;16.70;97.20;;;;;;5018631;28;20622;-79
2022/10/04 14:19:12;;;;;;;1.07;1.07;;;16.70;96.40;;;;;;5014105;28;20631;-79